sensor_id;sensor_type;location;lat;lon;timestamp;pressure;altitude;pressure_sealevel;temperature;humidity
40171;BME280;37650;52.790;18.268;2022-11-20T00:01:41;100159.98;;;-2.54;100.00
40171;BME280;37650;52.790;18.268;2022-11-20T00:05:03;100162.08;;;-2.53;100.00
40171;BME280;37650;52.790;18.268;2022-11-20T00:08:24;100164.83;;;-2.51;100.00
40171;BME280;37650;52.790;18.268;2022-11-20T00:11:45;100169.68;;;-2.48;100.00
40171;BME280;37650;52.790;18.268;2022-11-20T00:15:10;100166.42;;;-2.47;100.00
40171;BME280;37650;52.790;18.268;2022-11-20T00:18:33;100168.84;;;-2.47;100.00
40171;BME280;37650;52.790;18.268;2022-11-20T00:21:54;100170.53;;;-2.49;100.00
40171;BME280;37650;52.790;18.268;2022-11-20T00:25:16;100167.08;;;-2.50;100.00
40171;BME280;37650;52.790;18.268;2022-11-20T00:28:37;100170.67;;;-2.51;100.00
40171;BME280;37650;52.790;18.268;2022-11-20T00:31:59;100168.79;;;-2.51;100.00
40171;BME280;37650;52.790;18.268;2022-11-20T00:35:20;100168.89;;;-2.56;100.00
40171;BME280;37650;52.790;18.268;2022-11-20T00:38:41;100169.07;;;-2.57;100.00
40171;BME280;37650;52.790;18.268;2022-11-20T00:42:03;100167.69;;;-2.57;100.00
40171;BME280;37650;52.790;18.268;2022-11-20T00:45:24;100170.48;;;-2.53;100.00
40171;BME280;37650;52.790;18.268;2022-11-20T00:48:46;100169.14;;;-2.49;100.00
40171;BME280;37650;52.790;18.268;2022-11-20T00:52:07;100166.39;;;-2.49;100.00
40171;BME280;37650;52.790;18.268;2022-11-20T00:55:28;100172.08;;;-2.49;100.00
40171;BME280;37650;52.790;18.268;2022-11-20T00:58:49;100171.02;;;-2.49;100.00
40171;BME280;37650;52.790;18.268;2022-11-20T01:02:10;100166.24;;;-2.48;100.00
40171;BME280;37650;52.790;18.268;2022-11-20T01:05:34;100159.58;;;-2.47;100.00
40171;BME280;37650;52.790;18.268;2022-11-20T01:08:58;100161.78;;;-2.48;100.00
40171;BME280;37650;52.790;18.268;2022-11-20T01:12:20;100164.69;;;-2.49;100.00
40171;BME280;37650;52.790;18.268;2022-11-20T01:15:41;100161.38;;;-2.53;100.00
40171;BME280;37650;52.790;18.268;2022-11-20T01:19:04;100163.60;;;-2.54;100.00
40171;BME280;37650;52.790;18.268;2022-11-20T01:22:25;100159.48;;;-2.53;100.00
40171;BME280;37650;52.790;18.268;2022-11-20T01:25:46;100157.73;;;-2.56;100.00
40171;BME280;37650;52.790;18.268;2022-11-20T01:29:15;100156.87;;;-2.56;100.00
40171;BME280;37650;52.790;18.268;2022-11-20T01:32:37;100152.72;;;-2.59;100.00
40171;BME280;37650;52.790;18.268;2022-11-20T01:36:05;100156.30;;;-2.60;100.00
40171;BME280;37650;52.790;18.268;2022-11-20T01:39:29;100156.83;;;-2.60;100.00
40171;BME280;37650;52.790;18.268;2022-11-20T01:43:01;100156.80;;;-2.61;100.00
40171;BME280;37650;52.790;18.268;2022-11-20T01:46:56;100158.38;;;-2.59;100.00
40171;BME280;37650;52.790;18.268;2022-11-20T01:50:26;100154.24;;;-2.61;100.00
40171;BME280;37650;52.790;18.268;2022-11-20T01:53:51;100151.52;;;-2.59;100.00
40171;BME280;37650;52.790;18.268;2022-11-20T01:57:13;100145.02;;;-2.56;100.00
40171;BME280;37650;52.790;18.268;2022-11-20T02:00:36;100142.11;;;-2.55;100.00
40171;BME280;37650;52.790;18.268;2022-11-20T02:03:58;100138.16;;;-2.56;100.00
40171;BME280;37650;52.790;18.268;2022-11-20T02:07:20;100131.95;;;-2.59;100.00
40171;BME280;37650;52.790;18.268;2022-11-20T02:10:42;100130.41;;;-2.57;100.00
40171;BME280;37650;52.790;18.268;2022-11-20T02:14:03;100131.14;;;-2.55;100.00
40171;BME280;37650;52.790;18.268;2022-11-20T02:17:25;100131.66;;;-2.53;100.00
40171;BME280;37650;52.790;18.268;2022-11-20T02:20:49;100137.98;;;-2.55;100.00
40171;BME280;37650;52.790;18.268;2022-11-20T02:24:14;100137.05;;;-2.61;100.00
40171;BME280;37650;52.790;18.268;2022-11-20T02:27:36;100136.38;;;-2.61;100.00
40171;BME280;37650;52.790;18.268;2022-11-20T02:30:57;100130.20;;;-2.60;100.00
40171;BME280;37650;52.790;18.268;2022-11-20T02:34:18;100129.73;;;-2.57;100.00
40171;BME280;37650;52.790;18.268;2022-11-20T02:37:39;100133.67;;;-2.58;100.00
40171;BME280;37650;52.790;18.268;2022-11-20T02:41:01;100135.55;;;-2.59;100.00
40171;BME280;37650;52.790;18.268;2022-11-20T02:44:22;100133.14;;;-2.59;100.00
40171;BME280;37650;52.790;18.268;2022-11-20T02:47:43;100131.79;;;-2.58;100.00
40171;BME280;37650;52.790;18.268;2022-11-20T02:51:04;100129.23;;;-2.57;100.00
40171;BME280;37650;52.790;18.268;2022-11-20T02:54:25;100129.02;;;-2.58;100.00
40171;BME280;37650;52.790;18.268;2022-11-20T02:57:47;100120.42;;;-2.60;100.00
40171;BME280;37650;52.790;18.268;2022-11-20T03:01:08;100123.52;;;-2.59;100.00
40171;BME280;37650;52.790;18.268;2022-11-20T03:04:29;100132.27;;;-2.59;100.00
40171;BME280;37650;52.790;18.268;2022-11-20T03:07:50;100133.00;;;-2.58;100.00
40171;BME280;37650;52.790;18.268;2022-11-20T03:11:11;100134.89;;;-2.57;100.00
40171;BME280;37650;52.790;18.268;2022-11-20T03:14:32;100135.23;;;-2.57;100.00
40171;BME280;37650;52.790;18.268;2022-11-20T03:17:54;100136.45;;;-2.55;100.00
40171;BME280;37650;52.790;18.268;2022-11-20T03:21:16;100133.88;;;-2.55;100.00
40171;BME280;37650;52.790;18.268;2022-11-20T03:24:37;100132.48;;;-2.56;100.00
40171;BME280;37650;52.790;18.268;2022-11-20T03:27:58;100133.17;;;-2.57;100.00
40171;BME280;37650;52.790;18.268;2022-11-20T03:31:34;100131.24;;;-2.59;100.00
40171;BME280;37650;52.790;18.268;2022-11-20T03:34:56;100132.64;;;-2.58;100.00
40171;BME280;37650;52.790;18.268;2022-11-20T03:38:17;100130.57;;;-2.59;100.00
40171;BME280;37650;52.790;18.268;2022-11-20T03:41:40;100128.48;;;-2.61;100.00
40171;BME280;37650;52.790;18.268;2022-11-20T03:45:02;100129.83;;;-2.64;100.00
40171;BME280;37650;52.790;18.268;2022-11-20T03:48:24;100131.90;;;-2.63;100.00
40171;BME280;37650;52.790;18.268;2022-11-20T03:51:45;100131.91;;;-2.62;100.00
40171;BME280;37650;52.790;18.268;2022-11-20T03:55:08;100129.14;;;-2.64;100.00
40171;BME280;37650;52.790;18.268;2022-11-20T03:58:29;100131.05;;;-2.63;100.00
40171;BME280;37650;52.790;18.268;2022-11-20T04:01:50;100134.66;;;-2.60;100.00
40171;BME280;37650;52.790;18.268;2022-11-20T04:05:11;100124.70;;;-2.62;100.00
40171;BME280;37650;52.790;18.268;2022-11-20T04:08:33;100122.96;;;-2.63;100.00
40171;BME280;37650;52.790;18.268;2022-11-20T04:11:54;100119.93;;;-2.58;100.00
40171;BME280;37650;52.790;18.268;2022-11-20T04:15:15;100120.07;;;-2.60;100.00
40171;BME280;37650;52.790;18.268;2022-11-20T04:18:36;100126.07;;;-2.61;100.00
40171;BME280;37650;52.790;18.268;2022-11-20T04:21:57;100126.75;;;-2.61;100.00
40171;BME280;37650;52.790;18.268;2022-11-20T04:25:19;100120.41;;;-2.61;100.00
40171;BME280;37650;52.790;18.268;2022-11-20T04:28:40;100120.54;;;-2.65;100.00
40171;BME280;37650;52.790;18.268;2022-11-20T04:32:02;100118.98;;;-2.66;100.00
40171;BME280;37650;52.790;18.268;2022-11-20T04:35:23;100113.83;;;-2.65;100.00
40171;BME280;37650;52.790;18.268;2022-11-20T04:38:44;100107.31;;;-2.65;100.00
40171;BME280;37650;52.790;18.268;2022-11-20T04:42:07;100110.05;;;-2.66;100.00
40171;BME280;37650;52.790;18.268;2022-11-20T04:45:55;100111.76;;;-2.67;100.00
40171;BME280;37650;52.790;18.268;2022-11-20T04:49:16;100112.61;;;-2.68;100.00
40171;BME280;37650;52.790;18.268;2022-11-20T04:52:37;100110.05;;;-2.66;100.00
40171;BME280;37650;52.790;18.268;2022-11-20T04:56:06;100107.80;;;-2.66;100.00
40171;BME280;37650;52.790;18.268;2022-11-20T04:59:28;100115.51;;;-2.69;100.00
40171;BME280;37650;52.790;18.268;2022-11-20T05:02:49;100116.53;;;-2.70;100.00
40171;BME280;37650;52.790;18.268;2022-11-20T05:06:13;100113.13;;;-2.68;100.00
40171;BME280;37650;52.790;18.268;2022-11-20T05:09:34;100112.27;;;-2.65;100.00
40171;BME280;37650;52.790;18.268;2022-11-20T05:12:57;100111.06;;;-2.66;100.00
40171;BME280;37650;52.790;18.268;2022-11-20T05:16:20;100106.97;;;-2.65;100.00
40171;BME280;37650;52.790;18.268;2022-11-20T05:19:41;100102.71;;;-2.62;100.00
40171;BME280;37650;52.790;18.268;2022-11-20T05:23:02;100100.30;;;-2.62;100.00
40171;BME280;37650;52.790;18.268;2022-11-20T05:26:23;100099.46;;;-2.62;100.00
40171;BME280;37650;52.790;18.268;2022-11-20T05:29:44;100105.96;;;-2.62;100.00
40171;BME280;37650;52.790;18.268;2022-11-20T05:33:05;100107.88;;;-2.61;100.00
40171;BME280;37650;52.790;18.268;2022-11-20T05:36:26;100099.97;;;-2.63;100.00
40171;BME280;37650;52.790;18.268;2022-11-20T05:39:47;100096.84;;;-2.65;100.00
40171;BME280;37650;52.790;18.268;2022-11-20T05:43:08;100098.53;;;-2.67;100.00
40171;BME280;37650;52.790;18.268;2022-11-20T05:46:29;100105.74;;;-2.67;100.00
40171;BME280;37650;52.790;18.268;2022-11-20T05:49:50;100100.42;;;-2.67;100.00
40171;BME280;37650;52.790;18.268;2022-11-20T05:53:11;100100.42;;;-2.66;100.00
40171;BME280;37650;52.790;18.268;2022-11-20T05:56:32;100096.82;;;-2.66;100.00
40171;BME280;37650;52.790;18.268;2022-11-20T05:59:53;100093.39;;;-2.65;100.00
40171;BME280;37650;52.790;18.268;2022-11-20T06:03:14;100095.45;;;-2.65;100.00
40171;BME280;37650;52.790;18.268;2022-11-20T06:16:45;100098.77;;;-2.63;100.00
40171;BME280;37650;52.790;18.268;2022-11-20T06:20:06;100098.76;;;-2.62;100.00
40171;BME280;37650;52.790;18.268;2022-11-20T06:23:29;100094.48;;;-2.60;100.00
40171;BME280;37650;52.790;18.268;2022-11-20T06:26:50;100096.77;;;-2.57;100.00
40171;BME280;37650;52.790;18.268;2022-11-20T06:30:12;100099.33;;;-2.56;100.00
40171;BME280;37650;52.790;18.268;2022-11-20T06:33:34;100100.08;;;-2.52;100.00
40171;BME280;37650;52.790;18.268;2022-11-20T06:42:23;100097.70;;;-2.64;100.00
40171;BME280;37650;52.790;18.268;2022-11-20T06:45:44;100100.16;;;-2.60;100.00
40171;BME280;37650;52.790;18.268;2022-11-20T06:49:05;100094.98;;;-2.62;100.00
40171;BME280;37650;52.790;18.268;2022-11-20T06:52:26;100092.81;;;-2.56;100.00
40171;BME280;37650;52.790;18.268;2022-11-20T06:55:48;100094.86;;;-2.58;100.00
40171;BME280;37650;52.790;18.268;2022-11-20T06:59:09;100097.94;;;-2.59;100.00
40171;BME280;37650;52.790;18.268;2022-11-20T07:02:30;100099.17;;;-2.57;100.00
40171;BME280;37650;52.790;18.268;2022-11-20T07:05:51;100096.99;;;-2.52;100.00
40171;BME280;37650;52.790;18.268;2022-11-20T07:09:12;100093.70;;;-2.55;100.00
40171;BME280;37650;52.790;18.268;2022-11-20T07:12:58;100092.99;;;-2.55;100.00
40171;BME280;37650;52.790;18.268;2022-11-20T07:16:20;100086.52;;;-2.52;100.00
40171;BME280;37650;52.790;18.268;2022-11-20T07:19:41;100084.45;;;-2.51;100.00
40171;BME280;37650;52.790;18.268;2022-11-20T07:23:07;100085.48;;;-2.51;100.00
40171;BME280;37650;52.790;18.268;2022-11-20T07:26:28;100087.43;;;-2.47;100.00
40171;BME280;37650;52.790;18.268;2022-11-20T07:29:50;100089.48;;;-2.46;100.00
40171;BME280;37650;52.790;18.268;2022-11-20T07:33:11;100090.69;;;-2.47;100.00
40171;BME280;37650;52.790;18.268;2022-11-20T07:36:39;100089.52;;;-2.44;100.00
40171;BME280;37650;52.790;18.268;2022-11-20T07:40:00;100089.89;;;-2.42;100.00
40171;BME280;37650;52.790;18.268;2022-11-20T07:43:22;100085.09;;;-2.40;100.00
40171;BME280;37650;52.790;18.268;2022-11-20T07:46:43;100085.83;;;-2.35;100.00
40171;BME280;37650;52.790;18.268;2022-11-20T07:50:05;100083.42;;;-2.34;100.00
40171;BME280;37650;52.790;18.268;2022-11-20T07:53:26;100077.34;;;-2.27;100.00
40171;BME280;37650;52.790;18.268;2022-11-20T07:56:50;100073.05;;;-2.25;100.00
40171;BME280;37650;52.790;18.268;2022-11-20T08:00:12;100071.05;;;-2.19;100.00
40171;BME280;37650;52.790;18.268;2022-11-20T08:03:35;100071.73;;;-2.18;100.00
40171;BME280;37650;52.790;18.268;2022-11-20T08:07:02;100071.23;;;-2.17;100.00
40171;BME280;37650;52.790;18.268;2022-11-20T08:10:23;100074.48;;;-2.19;100.00
40171;BME280;37650;52.790;18.268;2022-11-20T08:13:45;100077.44;;;-2.16;100.00
40171;BME280;37650;52.790;18.268;2022-11-20T08:17:25;100076.95;;;-2.12;100.00
40171;BME280;37650;52.790;18.268;2022-11-20T08:20:46;100071.47;;;-2.10;100.00
40171;BME280;37650;52.790;18.268;2022-11-20T08:24:08;100066.48;;;-2.09;100.00
40171;BME280;37650;52.790;18.268;2022-11-20T08:27:31;100072.39;;;-2.04;100.00
40171;BME280;37650;52.790;18.268;2022-11-20T08:31:00;100067.37;;;-2.07;100.00
40171;BME280;37650;52.790;18.268;2022-11-20T08:34:21;100067.08;;;-2.01;100.00
40171;BME280;37650;52.790;18.268;2022-11-20T08:37:46;100059.45;;;-1.87;100.00
40171;BME280;37650;52.790;18.268;2022-11-20T08:41:07;100053.83;;;-1.82;100.00
40171;BME280;37650;52.790;18.268;2022-11-20T08:44:47;100049.61;;;-1.70;100.00
40171;BME280;37650;52.790;18.268;2022-11-20T08:48:08;100048.33;;;-1.57;100.00
40171;BME280;37650;52.790;18.268;2022-11-20T08:51:30;100044.91;;;-1.53;100.00
40171;BME280;37650;52.790;18.268;2022-11-20T08:54:51;100046.54;;;-1.39;100.00
40171;BME280;37650;52.790;18.268;2022-11-20T08:58:12;100046.71;;;-1.39;100.00
40171;BME280;37650;52.790;18.268;2022-11-20T09:01:33;100047.21;;;-1.41;100.00
40171;BME280;37650;52.790;18.268;2022-11-20T09:04:55;100046.23;;;-1.32;100.00
40171;BME280;37650;52.790;18.268;2022-11-20T09:08:16;100043.02;;;-1.23;100.00
40171;BME280;37650;52.790;18.268;2022-11-20T09:11:37;100039.41;;;-1.22;100.00
40171;BME280;37650;52.790;18.268;2022-11-20T09:14:59;100041.62;;;-1.27;100.00
40171;BME280;37650;52.790;18.268;2022-11-20T09:18:20;100040.41;;;-1.28;100.00
40171;BME280;37650;52.790;18.268;2022-11-20T09:21:42;100041.60;;;-1.31;100.00
40171;BME280;37650;52.790;18.268;2022-11-20T09:25:03;100036.08;;;-1.34;100.00
40171;BME280;37650;52.790;18.268;2022-11-20T09:28:26;100033.98;;;-1.40;100.00
40171;BME280;37650;52.790;18.268;2022-11-20T09:31:47;100037.23;;;-1.42;100.00
40171;BME280;37650;52.790;18.268;2022-11-20T09:35:09;100033.23;;;-1.47;100.00
40171;BME280;37650;52.790;18.268;2022-11-20T09:38:31;100027.73;;;-1.51;100.00
40171;BME280;37650;52.790;18.268;2022-11-20T09:53:39;100011.40;;;-1.11;100.00
40171;BME280;37650;52.790;18.268;2022-11-20T09:57:08;100009.16;;;-1.09;100.00
40171;BME280;37650;52.790;18.268;2022-11-20T10:00:31;100010.08;;;-0.98;100.00
40171;BME280;37650;52.790;18.268;2022-11-20T10:04:19;100008.20;;;-0.93;100.00
40171;BME280;37650;52.790;18.268;2022-11-20T10:07:47;100008.37;;;-0.93;100.00
40171;BME280;37650;52.790;18.268;2022-11-20T10:18:44;99999.98;;;-0.75;100.00
40171;BME280;37650;52.790;18.268;2022-11-20T10:26:16;100001.54;;;-0.73;100.00
40171;BME280;37650;52.790;18.268;2022-11-20T10:29:41;100000.19;;;-0.63;100.00
40171;BME280;37650;52.790;18.268;2022-11-20T10:33:11;99996.23;;;-0.63;100.00
40171;BME280;37650;52.790;18.268;2022-11-20T10:36:41;99991.77;;;-0.49;100.00
40171;BME280;37650;52.790;18.268;2022-11-20T10:44:09;99985.94;;;-0.27;100.00
40171;BME280;37650;52.790;18.268;2022-11-20T10:47:33;99985.59;;;-0.29;100.00
40171;BME280;37650;52.790;18.268;2022-11-20T10:51:30;99992.81;;;-0.37;100.00
40171;BME280;37650;52.790;18.268;2022-11-20T10:59:41;99990.87;;;-0.67;100.00
40171;BME280;37650;52.790;18.268;2022-11-20T11:02:39;99994.31;;;-0.75;100.00
40171;BME280;37650;52.790;18.268;2022-11-20T11:09:44;99989.13;;;-0.69;100.00
40171;BME280;37650;52.790;18.268;2022-11-20T11:13:07;99983.64;;;-0.70;100.00
40171;BME280;37650;52.790;18.268;2022-11-20T11:16:54;99980.90;;;-0.62;100.00
40171;BME280;37650;52.790;18.268;2022-11-20T11:20:21;99977.27;;;-0.65;100.00
40171;BME280;37650;52.790;18.268;2022-11-20T11:23:43;99973.66;;;-0.61;100.00
40171;BME280;37650;52.790;18.268;2022-11-20T11:27:12;99975.05;;;-0.54;100.00
40171;BME280;37650;52.790;18.268;2022-11-20T11:30:42;99970.73;;;-0.56;100.00
40171;BME280;37650;52.790;18.268;2022-11-20T11:34:14;99967.83;;;-0.52;100.00
40171;BME280;37650;52.790;18.268;2022-11-20T11:37:38;99968.34;;;-0.49;100.00
40171;BME280;37650;52.790;18.268;2022-11-20T11:41:00;99967.99;;;-0.50;100.00
40171;BME280;37650;52.790;18.268;2022-11-20T11:44:32;99965.58;;;-0.39;100.00
40171;BME280;37650;52.790;18.268;2022-11-20T11:48:12;99968.87;;;-0.26;100.00
40171;BME280;37650;52.790;18.268;2022-11-20T11:55:34;99963.52;;;-0.21;100.00
40171;BME280;37650;52.790;18.268;2022-11-20T11:58:57;99954.91;;;-0.16;100.00
40171;BME280;37650;52.790;18.268;2022-11-20T12:06:16;99947.84;;;-0.12;100.00
40171;BME280;37650;52.790;18.268;2022-11-20T12:09:43;99947.14;;;-0.10;100.00
40171;BME280;37650;52.790;18.268;2022-11-20T12:13:20;99944.73;;;-0.12;100.00
40171;BME280;37650;52.790;18.268;2022-11-20T12:16:43;99945.24;;;-0.12;100.00
40171;BME280;37650;52.790;18.268;2022-11-20T12:20:14;99942.65;;;-0.08;100.00
40171;BME280;37650;52.790;18.268;2022-11-20T12:39:22;99933.35;;;-0.10;100.00
40171;BME280;37650;52.790;18.268;2022-11-20T12:43:22;99933.35;;;-0.17;100.00
40171;BME280;37650;52.790;18.268;2022-11-20T12:47:33;99931.29;;;-0.27;100.00
40171;BME280;37650;52.790;18.268;2022-11-20T12:55:11;99917.67;;;-0.35;100.00
40171;BME280;37650;52.790;18.268;2022-11-20T13:06:16;99909.59;;;-0.38;100.00
40171;BME280;37650;52.790;18.268;2022-11-20T13:09:45;99904.94;;;-0.38;100.00
40171;BME280;37650;52.790;18.268;2022-11-20T13:13:17;99901.99;;;-0.37;100.00
40171;BME280;37650;52.790;18.268;2022-11-20T13:16:53;99903.71;;;-0.39;100.00
40171;BME280;37650;52.790;18.268;2022-11-20T13:20:19;99905.61;;;-0.41;100.00
40171;BME280;37650;52.790;18.268;2022-11-20T13:23:41;99902.18;;;-0.38;100.00
40171;BME280;37650;52.790;18.268;2022-11-20T13:30:35;99895.44;;;-0.42;100.00
40171;BME280;37650;52.790;18.268;2022-11-20T13:33:59;99890.79;;;-0.43;100.00
40171;BME280;37650;52.790;18.268;2022-11-20T13:37:33;99890.62;;;-0.41;100.00
40171;BME280;37650;52.790;18.268;2022-11-20T13:41:00;99888.20;;;-0.40;100.00
40171;BME280;37650;52.790;18.268;2022-11-20T13:44:53;99880.11;;;-0.38;100.00
40171;BME280;37650;52.790;18.268;2022-11-20T13:48:23;99880.27;;;-0.35;100.00
40171;BME280;37650;52.790;18.268;2022-11-20T13:51:50;99883.38;;;-0.37;100.00
40171;BME280;37650;52.790;18.268;2022-11-20T13:59:33;99879.42;;;-0.42;100.00
40171;BME280;37650;52.790;18.268;2022-11-20T14:02:35;99872.52;;;-0.42;100.00
40171;BME280;37650;52.790;18.268;2022-11-20T14:06:02;99870.81;;;-0.45;100.00
40171;BME280;37650;52.790;18.268;2022-11-20T14:09:31;99872.70;;;-0.48;100.00
40171;BME280;37650;52.790;18.268;2022-11-20T14:12:54;99872.36;;;-0.52;100.00
40171;BME280;37650;52.790;18.268;2022-11-20T14:16:20;99869.44;;;-0.55;100.00
40171;BME280;37650;52.790;18.268;2022-11-20T14:19:44;99874.26;;;-0.61;100.00
40171;BME280;37650;52.790;18.268;2022-11-20T14:23:28;99872.02;;;-0.72;100.00
40171;BME280;37650;52.790;18.268;2022-11-20T14:26:52;99872.88;;;-0.79;100.00
40171;BME280;37650;52.790;18.268;2022-11-20T14:30:25;99871.49;;;-0.87;100.00
40171;BME280;37650;52.790;18.268;2022-11-20T14:33:47;99867.54;;;-0.91;100.00
40171;BME280;37650;52.790;18.268;2022-11-20T14:37:18;99864.59;;;-0.95;100.00
40171;BME280;37650;52.790;18.268;2022-11-20T14:40:41;99864.24;;;-1.00;100.00
40171;BME280;37650;52.790;18.268;2022-11-20T14:44:09;99862.87;;;-1.04;100.00
40171;BME280;37650;52.790;18.268;2022-11-20T14:47:31;99855.98;;;-1.07;100.00
40171;BME280;37650;52.790;18.268;2022-11-20T14:50:54;99858.55;;;-1.06;100.00
40171;BME280;37650;52.790;18.268;2022-11-20T14:54:18;99860.28;;;-1.09;100.00
40171;BME280;37650;52.790;18.268;2022-11-20T14:57:40;99855.78;;;-1.11;100.00
40171;BME280;37650;52.790;18.268;2022-11-20T15:01:05;99855.46;;;-1.12;100.00
40171;BME280;37650;52.790;18.268;2022-11-20T15:04:27;99846.16;;;-1.13;100.00
40171;BME280;37650;52.790;18.268;2022-11-20T15:08:04;99839.61;;;-1.13;100.00
40171;BME280;37650;52.790;18.268;2022-11-20T15:11:29;99840.82;;;-1.12;100.00
40171;BME280;37650;52.790;18.268;2022-11-20T15:14:51;99840.46;;;-1.15;100.00
40171;BME280;37650;52.790;18.268;2022-11-20T15:23:16;99842.70;;;-1.17;100.00
40171;BME280;37650;52.790;18.268;2022-11-20T15:26:42;99842.36;;;-1.20;100.00
40171;BME280;37650;52.790;18.268;2022-11-20T15:30:16;99839.42;;;-1.21;100.00
40171;BME280;37650;52.790;18.268;2022-11-20T15:33:38;99831.68;;;-1.23;100.00
40171;BME280;37650;52.790;18.268;2022-11-20T15:37:03;99829.44;;;-1.22;100.00
40171;BME280;37650;52.790;18.268;2022-11-20T15:40:25;99833.56;;;-1.22;100.00
40171;BME280;37650;52.790;18.268;2022-11-20T15:43:46;99827.55;;;-1.23;100.00
40171;BME280;37650;52.790;18.268;2022-11-20T15:47:08;99823.77;;;-1.25;100.00
40171;BME280;37650;52.790;18.268;2022-11-20T15:50:47;99822.89;;;-1.28;100.00
40171;BME280;37650;52.790;18.268;2022-11-20T15:54:18;99826.34;;;-1.30;100.00
40171;BME280;37650;52.790;18.268;2022-11-20T15:57:41;99821.68;;;-1.35;100.00
40171;BME280;37650;52.790;18.268;2022-11-20T16:01:03;99823.22;;;-1.39;100.00
40171;BME280;37650;52.790;18.268;2022-11-20T16:04:26;99823.56;;;-1.41;100.00
40171;BME280;37650;52.790;18.268;2022-11-20T16:07:49;99823.56;;;-1.42;100.00
40171;BME280;37650;52.790;18.268;2022-11-20T16:11:17;99821.33;;;-1.41;100.00
40171;BME280;37650;52.790;18.268;2022-11-20T16:14:39;99824.59;;;-1.42;100.00
40171;BME280;37650;52.790;18.268;2022-11-20T16:18:20;99824.58;;;-1.44;100.00
40171;BME280;37650;52.790;18.268;2022-11-20T16:21:43;99820.79;;;-1.49;100.00
40171;BME280;37650;52.790;18.268;2022-11-20T16:25:05;99822.15;;;-1.53;100.00
40171;BME280;37650;52.790;18.268;2022-11-20T16:28:27;99820.77;;;-1.55;100.00
40171;BME280;37650;52.790;18.268;2022-11-20T16:31:49;99818.00;;;-1.60;100.00
40171;BME280;37650;52.790;18.268;2022-11-20T16:35:10;99817.99;;;-1.59;100.00
40171;BME280;37650;52.790;18.268;2022-11-20T16:38:34;99813.02;;;-1.58;100.00
40171;BME280;37650;52.790;18.268;2022-11-20T16:41:57;99812.52;;;-1.56;100.00
40171;BME280;37650;52.790;18.268;2022-11-20T16:45:19;99811.29;;;-1.58;100.00
40171;BME280;37650;52.790;18.268;2022-11-20T16:48:41;99807.16;;;-1.59;100.00
40171;BME280;37650;52.790;18.268;2022-11-20T16:52:02;99808.55;;;-1.56;100.00
40171;BME280;37650;52.790;18.268;2022-11-20T16:55:26;99813.03;;;-1.53;100.00
40171;BME280;37650;52.790;18.268;2022-11-20T16:58:59;99810.11;;;-1.51;100.00
40171;BME280;37650;52.790;18.268;2022-11-20T17:02:21;99812.20;;;-1.46;100.00
40171;BME280;37650;52.790;18.268;2022-11-20T17:05:43;99808.41;;;-1.43;100.00
40171;BME280;37650;52.790;18.268;2022-11-20T17:09:05;99804.46;;;-1.38;100.00
40171;BME280;37650;52.790;18.268;2022-11-20T17:12:30;99803.42;;;-1.38;100.00
40171;BME280;37650;52.790;18.268;2022-11-20T17:15:51;99803.61;;;-1.37;100.00
40171;BME280;37650;52.790;18.268;2022-11-20T17:19:13;99804.48;;;-1.31;100.00
40171;BME280;37650;52.790;18.268;2022-11-20T17:22:34;99802.25;;;-1.23;100.00
40171;BME280;37650;52.790;18.268;2022-11-20T17:26:22;99800.36;;;-1.17;100.00
40171;BME280;37650;52.790;18.268;2022-11-20T17:29:44;99792.46;;;-1.13;100.00
40171;BME280;37650;52.790;18.268;2022-11-20T17:33:07;99788.49;;;-1.07;100.00
40171;BME280;37650;52.790;18.268;2022-11-20T17:36:28;99786.26;;;-1.04;100.00
40171;BME280;37650;52.790;18.268;2022-11-20T17:39:50;99786.42;;;-1.05;100.00
40171;BME280;37650;52.790;18.268;2022-11-20T17:43:12;99782.13;;;-0.99;100.00
40171;BME280;37650;52.790;18.268;2022-11-20T17:46:37;99780.41;;;-0.93;100.00
40171;BME280;37650;52.790;18.268;2022-11-20T17:49:57;99777.81;;;-0.90;100.00
40171;BME280;37650;52.790;18.268;2022-11-20T17:53:19;99775.75;;;-0.90;100.00
40171;BME280;37650;52.790;18.268;2022-11-20T17:56:45;99775.05;;;-0.84;100.00
40171;BME280;37650;52.790;18.268;2022-11-20T18:00:25;99772.30;;;-0.84;100.00
40171;BME280;37650;52.790;18.268;2022-11-20T18:03:47;99769.55;;;-0.82;100.00
40171;BME280;37650;52.790;18.268;2022-11-20T18:07:08;99769.38;;;-0.81;100.00
40171;BME280;37650;52.790;18.268;2022-11-20T18:10:30;99765.24;;;-0.84;100.00
40171;BME280;37650;52.790;18.268;2022-11-20T18:13:54;99757.67;;;-0.86;100.00
40171;BME280;37650;52.790;18.268;2022-11-20T18:17:35;99758.02;;;-0.86;100.00
40171;BME280;37650;52.790;18.268;2022-11-20T18:20:57;99754.06;;;-0.87;100.00
40171;BME280;37650;52.790;18.268;2022-11-20T18:24:19;99752.68;;;-0.88;100.00
40171;BME280;37650;52.790;18.268;2022-11-20T18:27:41;99754.74;;;-0.90;100.00
40171;BME280;37650;52.790;18.268;2022-11-20T18:31:06;99752.16;;;-0.87;100.00
40171;BME280;37650;52.790;18.268;2022-11-20T18:34:28;99754.06;;;-0.89;100.00
40171;BME280;37650;52.790;18.268;2022-11-20T18:37:50;99750.09;;;-0.92;100.00
40171;BME280;37650;52.790;18.268;2022-11-20T18:41:15;99743.05;;;-0.99;100.00
40171;BME280;37650;52.790;18.268;2022-11-20T18:44:55;99743.22;;;-0.99;100.00
40171;BME280;37650;52.790;18.268;2022-11-20T18:48:17;99743.05;;;-1.06;100.00
40171;BME280;37650;52.790;18.268;2022-11-20T18:51:39;99744.60;;;-1.12;100.00
40171;BME280;37650;52.790;18.268;2022-11-20T18:55:01;99747.35;;;-1.20;100.00
40171;BME280;37650;52.790;18.268;2022-11-20T18:58:23;99743.41;;;-1.20;100.00
40171;BME280;37650;52.790;18.268;2022-11-20T19:01:45;99748.03;;;-1.21;100.00
40171;BME280;37650;52.790;18.268;2022-11-20T19:05:08;99747.87;;;-1.17;100.00
40171;BME280;37650;52.790;18.268;2022-11-20T19:08:33;99749.08;;;-1.18;100.00